sensor_id;sensor_type;location;lat;lon;timestamp;pressure;altitude;pressure_sealevel;temperature;humidity
39411;BME280;26579;43.238;23.124;2023-04-07T00:00:02;96681.91;;;4.32;52.44
39411;BME280;26579;43.238;23.124;2023-04-07T00:02:37;96676.66;;;4.34;52.94
39411;BME280;26579;43.238;23.124;2023-04-07T00:05:03;96684.03;;;4.25;52.54
39411;BME280;26579;43.238;23.124;2023-04-07T00:07:28;96667.56;;;4.28;52.46
39411;BME280;26579;43.238;23.124;2023-04-07T00:09:54;96668.38;;;4.28;52.62
39411;BME280;26579;43.238;23.124;2023-04-07T00:12:20;96670.03;;;4.15;53.50
39411;BME280;26579;43.238;23.124;2023-04-07T00:14:45;96663.50;;;4.09;53.50
39411;BME280;26579;43.238;23.124;2023-04-07T00:17:11;96660.09;;;3.95;54.01
39411;BME280;26579;43.238;23.124;2023-04-07T00:19:36;96668.13;;;4.04;53.71
39411;BME280;26579;43.238;23.124;2023-04-07T00:22:02;96657.53;;;4.09;53.58
39411;BME280;26579;43.238;23.124;2023-04-07T00:24:28;96672.06;;;4.10;54.46
39411;BME280;26579;43.238;23.124;2023-04-07T00:26:53;96661.47;;;4.00;54.43
39411;BME280;26579;43.238;23.124;2023-04-07T00:29:19;96660.84;;;4.11;53.96
39411;BME280;26579;43.238;23.124;2023-04-07T00:31:45;96659.84;;;4.14;54.94
39411;BME280;26579;43.238;23.124;2023-04-07T00:34:10;96664.44;;;4.08;55.21
39411;BME280;26579;43.238;23.124;2023-04-07T00:36:36;96668.47;;;4.13;54.49
39411;BME280;26579;43.238;23.124;2023-04-07T00:39:02;96665.81;;;4.00;55.29
39411;BME280;26579;43.238;23.124;2023-04-07T00:41:28;96650.16;;;4.03;55.40
39411;BME280;26579;43.238;23.124;2023-04-07T00:43:53;96620.56;;;3.67;56.07
39411;BME280;26579;43.238;23.124;2023-04-07T00:46:21;96649.09;;;3.93;55.96
39411;BME280;26579;43.238;23.124;2023-04-07T00:48:47;96650.81;;;3.92;55.21
39411;BME280;26579;43.238;23.124;2023-04-07T00:51:13;96644.66;;;3.95;56.06
39411;BME280;26579;43.238;23.124;2023-04-07T00:53:39;96664.50;;;4.07;57.20
39411;BME280;26579;43.238;23.124;2023-04-07T00:56:05;96667.66;;;4.12;55.42
39411;BME280;26579;43.238;23.124;2023-04-07T00:58:30;96655.41;;;4.01;56.81
39411;BME280;26579;43.238;23.124;2023-04-07T01:01:15;96663.31;;;4.13;55.63
39411;BME280;26579;43.238;23.124;2023-04-07T01:03:59;96649.72;;;4.11;55.61
39411;BME280;26579;43.238;23.124;2023-04-07T01:06:30;96656.78;;;4.21;54.72
39411;BME280;26579;43.238;23.124;2023-04-07T01:09:22;96654.00;;;4.24;55.35
39411;BME280;26579;43.238;23.124;2023-04-07T01:11:58;96639.59;;;4.22;55.25
39411;BME280;26579;43.238;23.124;2023-04-07T01:14:32;96644.56;;;4.25;56.67
39411;BME280;26579;43.238;23.124;2023-04-07T01:17:06;96639.03;;;4.17;57.92
39411;BME280;26579;43.238;23.124;2023-04-07T01:20:07;96642.50;;;4.16;56.27
39411;BME280;26579;43.238;23.124;2023-04-07T01:22:32;96644.47;;;3.98;55.01
39411;BME280;26579;43.238;23.124;2023-04-07T01:29:53;96635.66;;;4.02;55.88
39411;BME280;26579;43.238;23.124;2023-04-07T01:32:20;96639.78;;;4.04;55.34
39411;BME280;26579;43.238;23.124;2023-04-07T01:34:49;96636.28;;;4.05;55.98
39411;BME280;26579;43.238;23.124;2023-04-07T01:37:17;96631.88;;;4.07;55.42
39411;BME280;26579;43.238;23.124;2023-04-07T01:39:43;96637.09;;;4.20;56.00
39411;BME280;26579;43.238;23.124;2023-04-07T01:42:14;96632.13;;;4.17;56.17
39411;BME280;26579;43.238;23.124;2023-04-07T01:44:49;96627.63;;;4.06;56.94
39411;BME280;26579;43.238;23.124;2023-04-07T01:47:15;96631.56;;;4.12;56.27
39411;BME280;26579;43.238;23.124;2023-04-07T01:49:41;96634.53;;;4.20;56.54
39411;BME280;26579;43.238;23.124;2023-04-07T01:52:08;96624.34;;;4.04;56.85
39411;BME280;26579;43.238;23.124;2023-04-07T01:54:34;96618.06;;;4.08;56.89
39411;BME280;26579;43.238;23.124;2023-04-07T01:57:00;96614.94;;;4.03;56.14
39411;BME280;26579;43.238;23.124;2023-04-07T01:59:27;96626.59;;;4.09;56.92
39411;BME280;26579;43.238;23.124;2023-04-07T02:01:53;96609.03;;;4.01;56.16
39411;BME280;26579;43.238;23.124;2023-04-07T02:04:36;96619.53;;;3.98;55.67
39411;BME280;26579;43.238;23.124;2023-04-07T02:07:18;96616.59;;;4.04;55.03
39411;BME280;26579;43.238;23.124;2023-04-07T02:09:48;96612.72;;;3.97;54.79
39411;BME280;26579;43.238;23.124;2023-04-07T02:12:16;96623.97;;;4.11;54.63
39411;BME280;26579;43.238;23.124;2023-04-07T02:14:51;96622.66;;;4.03;54.91
39411;BME280;26579;43.238;23.124;2023-04-07T02:17:17;96622.47;;;4.06;54.86
39411;BME280;26579;43.238;23.124;2023-04-07T02:19:44;96631.19;;;4.18;54.34
39411;BME280;26579;43.238;23.124;2023-04-07T02:22:11;96608.50;;;4.11;53.85
39411;BME280;26579;43.238;23.124;2023-04-07T02:24:42;96616.22;;;4.11;54.10
39411;BME280;26579;43.238;23.124;2023-04-07T02:27:08;96608.03;;;4.04;54.09
39411;BME280;26579;43.238;23.124;2023-04-07T02:29:33;96608.50;;;3.96;54.95
39411;BME280;26579;43.238;23.124;2023-04-07T02:31:59;96630.81;;;4.10;54.00
39411;BME280;26579;43.238;23.124;2023-04-07T02:34:28;96627.63;;;4.06;54.38
39411;BME280;26579;43.238;23.124;2023-04-07T02:36:53;96610.53;;;3.91;55.70
39411;BME280;26579;43.238;23.124;2023-04-07T02:39:19;96628.56;;;4.05;54.89
39411;BME280;26579;43.238;23.124;2023-04-07T02:41:45;96638.31;;;4.00;54.57
39411;BME280;26579;43.238;23.124;2023-04-07T02:44:10;96633.88;;;3.88;56.04
39411;BME280;26579;43.238;23.124;2023-04-07T02:46:36;96630.56;;;3.86;55.63
39411;BME280;26579;43.238;23.124;2023-04-07T02:49:02;96599.66;;;3.57;57.13
39411;BME280;26579;43.238;23.124;2023-04-07T02:51:27;96635.00;;;3.84;56.23
39411;BME280;26579;43.238;23.124;2023-04-07T02:53:53;96634.81;;;3.73;56.57
39411;BME280;26579;43.238;23.124;2023-04-07T02:56:19;96649.59;;;3.69;57.38
39411;BME280;26579;43.238;23.124;2023-04-07T02:58:45;96635.72;;;3.72;56.24
39411;BME280;26579;43.238;23.124;2023-04-07T03:01:10;96641.03;;;3.69;57.18
39411;BME280;26579;43.238;23.124;2023-04-07T03:03:36;96614.66;;;3.65;56.96
39411;BME280;26579;43.238;23.124;2023-04-07T03:06:10;96633.97;;;3.72;58.16
39411;BME280;26579;43.238;23.124;2023-04-07T03:08:45;96631.03;;;3.78;57.69
39411;BME280;26579;43.238;23.124;2023-04-07T03:11:11;96646.03;;;3.86;57.47
39411;BME280;26579;43.238;23.124;2023-04-07T03:13:37;96646.94;;;3.85;57.50
39411;BME280;26579;43.238;23.124;2023-04-07T03:16:03;96645.38;;;3.82;56.07
39411;BME280;26579;43.238;23.124;2023-04-07T03:18:34;96634.44;;;3.65;56.83
39411;BME280;26579;43.238;23.124;2023-04-07T03:21:00;96646.22;;;3.83;58.08
39411;BME280;26579;43.238;23.124;2023-04-07T03:23:26;96633.50;;;3.66;57.52
39411;BME280;26579;43.238;23.124;2023-04-07T03:25:52;96642.16;;;3.65;58.09
39411;BME280;26579;43.238;23.124;2023-04-07T03:28:18;96644.63;;;3.80;55.52
39411;BME280;26579;43.238;23.124;2023-04-07T03:30:43;96652.66;;;3.90;56.11
39411;BME280;26579;43.238;23.124;2023-04-07T03:33:09;96636.91;;;3.95;52.29
39411;BME280;26579;43.238;23.124;2023-04-07T03:35:34;96647.84;;;4.13;51.18
39411;BME280;26579;43.238;23.124;2023-04-07T03:38:00;96649.03;;;4.21;48.45
39411;BME280;26579;43.238;23.124;2023-04-07T03:40:26;96642.97;;;4.37;48.13
39411;BME280;26579;43.238;23.124;2023-04-07T03:42:52;96643.66;;;4.53;47.21
39411;BME280;26579;43.238;23.124;2023-04-07T03:45:17;96650.47;;;4.68;48.28
39411;BME280;26579;43.238;23.124;2023-04-07T03:47:47;96654.66;;;4.84;50.13
39411;BME280;26579;43.238;23.124;2023-04-07T03:50:13;96643.41;;;4.85;50.89
39411;BME280;26579;43.238;23.124;2023-04-07T03:52:59;96655.97;;;5.04;47.91
39411;BME280;26579;43.238;23.124;2023-04-07T03:55:29;96661.97;;;5.17;47.80
39411;BME280;26579;43.238;23.124;2023-04-07T03:57:59;96662.94;;;5.29;48.01
39411;BME280;26579;43.238;23.124;2023-04-07T04:00:29;96663.66;;;5.31;49.59
39411;BME280;26579;43.238;23.124;2023-04-07T04:03:05;96663.25;;;5.37;49.96
39411;BME280;26579;43.238;23.124;2023-04-07T04:05:32;96664.63;;;5.42;49.84
39411;BME280;26579;43.238;23.124;2023-04-07T04:07:58;96667.00;;;5.45;49.81
39411;BME280;26579;43.238;23.124;2023-04-07T04:10:25;96673.31;;;5.54;48.66
39411;BME280;26579;43.238;23.124;2023-04-07T04:12:52;96663.09;;;5.65;44.65
39411;BME280;26579;43.238;23.124;2023-04-07T04:15:18;96672.00;;;5.74;43.63
39411;BME280;26579;43.238;23.124;2023-04-07T04:17:44;96669.72;;;5.82;43.04
39411;BME280;26579;43.238;23.124;2023-04-07T04:20:11;96669.53;;;5.85;45.01
39411;BME280;26579;43.238;23.124;2023-04-07T04:22:42;96669.19;;;5.90;48.52
39411;BME280;26579;43.238;23.124;2023-04-07T04:25:08;96667.16;;;5.82;48.15
39411;BME280;26579;43.238;23.124;2023-04-07T04:27:34;96678.63;;;5.91;45.93
39411;BME280;26579;43.238;23.124;2023-04-07T04:30:10;96687.19;;;5.92;44.78
39411;BME280;26579;43.238;23.124;2023-04-07T04:32:49;96674.63;;;6.00;43.78
39411;BME280;26579;43.238;23.124;2023-04-07T04:35:19;96666.16;;;5.98;46.16
39411;BME280;26579;43.238;23.124;2023-04-07T04:38:00;96667.38;;;6.05;44.63
39411;BME280;26579;43.238;23.124;2023-04-07T04:40:26;96671.22;;;6.12;44.75
39411;BME280;26579;43.238;23.124;2023-04-07T04:42:52;96676.16;;;6.15;43.44
39411;BME280;26579;43.238;23.124;2023-04-07T04:45:20;96668.91;;;6.07;43.55
39411;BME280;26579;43.238;23.124;2023-04-07T04:47:47;96681.41;;;6.13;42.62
39411;BME280;26579;43.238;23.124;2023-04-07T04:50:13;96661.91;;;5.97;42.13
39411;BME280;26579;43.238;23.124;2023-04-07T04:52:40;96675.34;;;6.15;42.02
39411;BME280;26579;43.238;23.124;2023-04-07T04:55:10;96674.31;;;6.17;42.31
39411;BME280;26579;43.238;23.124;2023-04-07T04:57:36;96671.81;;;6.16;42.31
39411;BME280;26579;43.238;23.124;2023-04-07T05:00:06;96662.19;;;6.05;41.68
39411;BME280;26579;43.238;23.124;2023-04-07T05:02:32;96678.22;;;6.10;41.90
39411;BME280;26579;43.238;23.124;2023-04-07T05:05:01;96684.88;;;6.14;42.25
39411;BME280;26579;43.238;23.124;2023-04-07T05:07:28;96695.69;;;6.19;42.45
39411;BME280;26579;43.238;23.124;2023-04-07T05:09:55;96688.56;;;6.23;42.06
39411;BME280;26579;43.238;23.124;2023-04-07T05:12:21;96666.66;;;6.03;42.12
39411;BME280;26579;43.238;23.124;2023-04-07T05:14:53;96686.81;;;6.23;42.20
39411;BME280;26579;43.238;23.124;2023-04-07T05:17:19;96686.28;;;6.18;42.27
39411;BME280;26579;43.238;23.124;2023-04-07T05:19:44;96690.09;;;6.25;42.59
39411;BME280;26579;43.238;23.124;2023-04-07T05:22:17;96698.16;;;6.33;42.57
39411;BME280;26579;43.238;23.124;2023-04-07T05:24:47;96704.28;;;6.32;42.00
39411;BME280;26579;43.238;23.124;2023-04-07T05:27:12;96698.47;;;6.42;42.38
39411;BME280;26579;43.238;23.124;2023-04-07T05:29:39;96679.41;;;6.43;42.17
39411;BME280;26579;43.238;23.124;2023-04-07T05:32:09;96711.19;;;6.57;42.17
39411;BME280;26579;43.238;23.124;2023-04-07T05:34:35;96700.50;;;6.62;42.48
39411;BME280;26579;43.238;23.124;2023-04-07T05:37:02;96695.31;;;6.62;42.30
39411;BME280;26579;43.238;23.124;2023-04-07T05:39:29;96714.13;;;6.77;41.49
39411;BME280;26579;43.238;23.124;2023-04-07T05:41:56;96724.25;;;6.80;41.58
39411;BME280;26579;43.238;23.124;2023-04-07T05:44:25;96705.09;;;6.83;41.15
39411;BME280;26579;43.238;23.124;2023-04-07T05:46:51;96716.84;;;6.99;41.49
39411;BME280;26579;43.238;23.124;2023-04-07T05:49:19;96712.13;;;6.93;40.45
39411;BME280;26579;43.238;23.124;2023-04-07T05:51:47;96726.25;;;7.00;40.76
39411;BME280;26579;43.238;23.124;2023-04-07T05:54:13;96714.38;;;6.98;40.89
39411;BME280;26579;43.238;23.124;2023-04-07T05:56:40;96717.59;;;7.01;41.05
39411;BME280;26579;43.238;23.124;2023-04-07T05:59:06;96719.38;;;7.12;40.31
39411;BME280;26579;43.238;23.124;2023-04-07T06:01:32;96716.72;;;7.14;39.95
39411;BME280;26579;43.238;23.124;2023-04-07T06:03:58;96700.94;;;7.17;40.56
39411;BME280;26579;43.238;23.124;2023-04-07T06:06:25;96715.97;;;7.36;40.38
39411;BME280;26579;43.238;23.124;2023-04-07T06:08:51;96701.88;;;7.40;40.09
39411;BME280;26579;43.238;23.124;2023-04-07T06:11:16;96713.16;;;7.63;39.53
39411;BME280;26579;43.238;23.124;2023-04-07T06:13:42;96706.25;;;7.75;39.54
39411;BME280;26579;43.238;23.124;2023-04-07T06:16:08;96715.09;;;7.83;39.31
39411;BME280;26579;43.238;23.124;2023-04-07T06:18:33;96718.78;;;7.92;39.21
39411;BME280;26579;43.238;23.124;2023-04-07T06:21:02;96720.19;;;7.96;38.18
39411;BME280;26579;43.238;23.124;2023-04-07T06:23:28;96712.38;;;7.85;38.32
39411;BME280;26579;43.238;23.124;2023-04-07T06:25:53;96706.97;;;7.88;38.19
39411;BME280;26579;43.238;23.124;2023-04-07T06:28:21;96711.00;;;7.92;39.13
39411;BME280;26579;43.238;23.124;2023-04-07T06:30:50;96709.31;;;7.91;38.53
39411;BME280;26579;43.238;23.124;2023-04-07T06:33:16;96695.28;;;7.82;38.75
39411;BME280;26579;43.238;23.124;2023-04-07T06:35:47;96723.59;;;7.85;38.40
39411;BME280;26579;43.238;23.124;2023-04-07T06:38:13;96728.16;;;7.82;38.84
39411;BME280;26579;43.238;23.124;2023-04-07T06:40:38;96722.16;;;7.81;38.84
39411;BME280;26579;43.238;23.124;2023-04-07T06:43:04;96729.81;;;7.83;39.45
39411;BME280;26579;43.238;23.124;2023-04-07T06:45:39;96723.88;;;7.69;39.06
39411;BME280;26579;43.238;23.124;2023-04-07T06:48:04;96732.16;;;7.75;39.95
39411;BME280;26579;43.238;23.124;2023-04-07T06:50:30;96728.63;;;7.76;40.18
39411;BME280;26579;43.238;23.124;2023-04-07T06:52:58;96741.31;;;7.67;39.50
39411;BME280;26579;43.238;23.124;2023-04-07T06:55:27;96756.16;;;7.65;39.26
39411;BME280;26579;43.238;23.124;2023-04-07T06:57:52;96749.31;;;7.64;40.05
39411;BME280;26579;43.238;23.124;2023-04-07T07:00:18;96744.03;;;7.66;39.63
39411;BME280;26579;43.238;23.124;2023-04-07T07:02:46;96767.25;;;7.79;39.60
39411;BME280;26579;43.238;23.124;2023-04-07T07:05:11;96777.41;;;7.82;39.40
39411;BME280;26579;43.238;23.124;2023-04-07T07:07:37;96781.66;;;7.59;40.42
39411;BME280;26579;43.238;23.124;2023-04-07T07:10:03;96784.31;;;7.46;40.67
39411;BME280;26579;43.238;23.124;2023-04-07T07:12:29;96779.81;;;7.37;40.66
39411;BME280;26579;43.238;23.124;2023-04-07T07:14:57;96782.22;;;7.51;40.89
39411;BME280;26579;43.238;23.124;2023-04-07T07:17:22;96788.75;;;7.57;41.69
39411;BME280;26579;43.238;23.124;2023-04-07T07:19:48;96780.63;;;7.61;41.57
39411;BME280;26579;43.238;23.124;2023-04-07T07:22:14;96777.09;;;7.62;41.72
39411;BME280;26579;43.238;23.124;2023-04-07T07:24:39;96790.09;;;7.74;40.93
39411;BME280;26579;43.238;23.124;2023-04-07T07:27:05;96781.72;;;7.70;41.95
39411;BME280;26579;43.238;23.124;2023-04-07T07:29:31;96782.59;;;7.82;41.84
39411;BME280;26579;43.238;23.124;2023-04-07T07:31:56;96773.75;;;7.84;42.43
39411;BME280;26579;43.238;23.124;2023-04-07T07:34:22;96789.41;;;8.07;41.25
39411;BME280;26579;43.238;23.124;2023-04-07T07:36:48;96785.78;;;8.21;40.62
39411;BME280;26579;43.238;23.124;2023-04-07T07:39:13;96798.13;;;8.41;39.84
39411;BME280;26579;43.238;23.124;2023-04-07T07:41:39;96788.91;;;8.48;39.26
39411;BME280;26579;43.238;23.124;2023-04-07T07:44:04;96803.09;;;8.55;39.62
39411;BME280;26579;43.238;23.124;2023-04-07T07:46:30;96795.16;;;8.57;38.68
39411;BME280;26579;43.238;23.124;2023-04-07T07:48:56;96789.66;;;8.61;39.74
39411;BME280;26579;43.238;23.124;2023-04-07T07:51:21;96790.72;;;8.81;39.49
39411;BME280;26579;43.238;23.124;2023-04-07T07:53:47;96784.56;;;8.94;39.04
39411;BME280;26579;43.238;23.124;2023-04-07T07:56:13;96796.50;;;9.07;38.83
39411;BME280;26579;43.238;23.124;2023-04-07T07:58:38;96798.59;;;9.14;38.25
39411;BME280;26579;43.238;23.124;2023-04-07T08:01:04;96801.88;;;9.27;37.38
39411;BME280;26579;43.238;23.124;2023-04-07T08:03:30;96800.47;;;9.34;37.31
39411;BME280;26579;43.238;23.124;2023-04-07T08:05:58;96797.84;;;9.45;37.16
39411;BME280;26579;43.238;23.124;2023-04-07T08:08:24;96791.22;;;9.41;37.71
39411;BME280;26579;43.238;23.124;2023-04-07T08:10:50;96780.72;;;9.43;36.54
39411;BME280;26579;43.238;23.124;2023-04-07T08:13:15;96795.69;;;9.50;37.17
39411;BME280;26579;43.238;23.124;2023-04-07T08:15:41;96789.75;;;9.60;37.14
39411;BME280;26579;43.238;23.124;2023-04-07T08:18:07;96792.91;;;9.31;38.66
39411;BME280;26579;43.238;23.124;2023-04-07T08:20:33;96803.75;;;9.25;39.74
39411;BME280;26579;43.238;23.124;2023-04-07T08:22:59;96796.97;;;8.68;39.71
39411;BME280;26579;43.238;23.124;2023-04-07T08:25:24;96812.75;;;8.87;40.82
39411;BME280;26579;43.238;23.124;2023-04-07T08:27:50;96806.63;;;8.77;39.80
39411;BME280;26579;43.238;23.124;2023-04-07T08:30:16;96810.88;;;8.78;39.63
39411;BME280;26579;43.238;23.124;2023-04-07T08:32:43;96817.25;;;8.85;39.77
39411;BME280;26579;43.238;23.124;2023-04-07T08:35:09;96815.72;;;8.82;39.23
39411;BME280;26579;43.238;23.124;2023-04-07T08:37:36;96816.78;;;8.91;39.43
39411;BME280;26579;43.238;23.124;2023-04-07T08:40:02;96808.03;;;9.03;39.76
39411;BME280;26579;43.238;23.124;2023-04-07T08:42:31;96811.22;;;9.07;38.53
39411;BME280;26579;43.238;23.124;2023-04-07T08:45:03;96819.25;;;9.04;36.94
39411;BME280;26579;43.238;23.124;2023-04-07T08:47:31;96806.41;;;8.91;37.58
39411;BME280;26579;43.238;23.124;2023-04-07T08:50:00;96808.16;;;8.68;37.96
39411;BME280;26579;43.238;23.124;2023-04-07T08:54:59;96802.16;;;8.79;37.75
39411;BME280;26579;43.238;23.124;2023-04-07T08:57:26;96819.72;;;8.98;38.33
39411;BME280;26579;43.238;23.124;2023-04-07T08:59:53;96810.41;;;8.84;37.95
39411;BME280;26579;43.238;23.124;2023-04-07T09:02:19;96836.94;;;8.65;38.16
39411;BME280;26579;43.238;23.124;2023-04-07T09:04:45;96825.75;;;8.65;38.21
39411;BME280;26579;43.238;23.124;2023-04-07T09:07:11;96824.91;;;8.75;38.87
39411;BME280;26579;43.238;23.124;2023-04-07T09:09:37;96825.75;;;8.87;38.23
39411;BME280;26579;43.238;23.124;2023-04-07T09:12:02;96823.88;;;9.12;38.49
39411;BME280;26579;43.238;23.124;2023-04-07T09:14:28;96811.69;;;9.12;37.42
39411;BME280;26579;43.238;23.124;2023-04-07T09:16:54;96822.66;;;9.38;37.44
39411;BME280;26579;43.238;23.124;2023-04-07T09:19:19;96836.16;;;9.64;37.78
39411;BME280;26579;43.238;23.124;2023-04-07T09:21:49;96824.22;;;10.05;36.53
39411;BME280;26579;43.238;23.124;2023-04-07T09:24:26;96832.00;;;10.37;36.37
39411;BME280;26579;43.238;23.124;2023-04-07T09:27:11;96834.34;;;10.40;35.23
39411;BME280;26579;43.238;23.124;2023-04-07T09:29:40;96819.19;;;10.46;35.42
39411;BME280;26579;43.238;23.124;2023-04-07T09:32:06;96831.63;;;10.63;36.17
39411;BME280;26579;43.238;23.124;2023-04-07T09:34:37;96830.66;;;10.64;35.10
39411;BME280;26579;43.238;23.124;2023-04-07T09:37:04;96833.06;;;10.56;35.82
39411;BME280;26579;43.238;23.124;2023-04-07T09:39:30;96825.47;;;10.43;35.54
39411;BME280;26579;43.238;23.124;2023-04-07T09:41:56;96831.69;;;10.31;35.71
39411;BME280;26579;43.238;23.124;2023-04-07T09:44:23;96834.22;;;10.21;37.58
39411;BME280;26579;43.238;23.124;2023-04-07T09:46:53;96840.47;;;10.18;37.04
39411;BME280;26579;43.238;23.124;2023-04-07T09:49:20;96829.00;;;9.89;37.78
39411;BME280;26579;43.238;23.124;2023-04-07T09:51:55;96848.16;;;9.88;38.48
39411;BME280;26579;43.238;23.124;2023-04-07T09:54:40;96849.63;;;9.69;38.30
39411;BME280;26579;43.238;23.124;2023-04-07T09:57:08;96844.13;;;9.51;38.32
39411;BME280;26579;43.238;23.124;2023-04-07T09:59:36;96855.59;;;9.38;38.56
39411;BME280;26579;43.238;23.124;2023-04-07T10:02:03;96852.19;;;9.15;38.25
39411;BME280;26579;43.238;23.124;2023-04-07T10:04:29;96843.34;;;9.06;38.82
39411;BME280;26579;43.238;23.124;2023-04-07T10:06:55;96859.97;;;9.15;38.71
39411;BME280;26579;43.238;23.124;2023-04-07T10:09:22;96863.75;;;9.22;39.16
39411;BME280;26579;43.238;23.124;2023-04-07T10:11:52;96861.38;;;9.19;38.25
39411;BME280;26579;43.238;23.124;2023-04-07T10:14:21;96863.53;;;9.14;37.92
39411;BME280;26579;43.238;23.124;2023-04-07T10:16:47;96866.25;;;9.23;38.38
39411;BME280;26579;43.238;23.124;2023-04-07T10:19:13;96855.03;;;9.23;37.69
39411;BME280;26579;43.238;23.124;2023-04-07T10:21:40;96854.56;;;9.18;37.66
39411;BME280;26579;43.238;23.124;2023-04-07T10:27:13;96861.75;;;9.25;38.04
39411;BME280;26579;43.238;23.124;2023-04-07T10:29:42;96860.09;;;9.24;37.48
39411;BME280;26579;43.238;23.124;2023-04-07T10:32:09;96850.75;;;9.22;38.34
39411;BME280;26579;43.238;23.124;2023-04-07T10:37:16;96866.91;;;9.48;37.22
39411;BME280;26579;43.238;23.124;2023-04-07T10:39:42;96861.47;;;9.51;37.22
39411;BME280;26579;43.238;23.124;2023-04-07T10:45:03;96874.75;;;9.37;37.17
39411;BME280;26579;43.238;23.124;2023-04-07T10:47:29;96860.56;;;9.29;37.57
39411;BME280;26579;43.238;23.124;2023-04-07T10:50:16;96877.53;;;9.45;38.27
39411;BME280;26579;43.238;23.124;2023-04-07T10:52:42;96877.44;;;9.35;36.90
39411;BME280;26579;43.238;23.124;2023-04-07T10:55:35;96878.41;;;9.34;37.18
39411;BME280;26579;43.238;23.124;2023-04-07T10:58:20;96876.72;;;9.44;37.62
39411;BME280;26579;43.238;23.124;2023-04-07T11:03:38;96870.00;;;9.30;37.03
39411;BME280;26579;43.238;23.124;2023-04-07T11:06:08;96884.53;;;9.33;37.97
39411;BME280;26579;43.238;23.124;2023-04-07T11:08:35;96887.72;;;9.25;37.33
39411;BME280;26579;43.238;23.124;2023-04-07T11:11:02;96881.00;;;9.12;37.35
39411;BME280;26579;43.238;23.124;2023-04-07T11:13:27;96888.06;;;8.98;37.86
39411;BME280;26579;43.238;23.124;2023-04-07T11:15:53;96906.59;;;8.94;39.07
39411;BME280;26579;43.238;23.124;2023-04-07T11:18:21;96893.25;;;8.98;38.99
39411;BME280;26579;43.238;23.124;2023-04-07T11:20:50;96881.22;;;8.97;38.97
39411;BME280;26579;43.238;23.124;2023-04-07T11:23:20;96880.53;;;9.06;38.53
39411;BME280;26579;43.238;23.124;2023-04-07T11:25:50;96883.84;;;9.20;38.62
39411;BME280;26579;43.238;23.124;2023-04-07T11:28:17;96883.59;;;9.23;37.70
39411;BME280;26579;43.238;23.124;2023-04-07T11:30:49;96888.78;;;9.23;39.05
39411;BME280;26579;43.238;23.124;2023-04-07T11:33:22;96887.50;;;9.40;37.43
39411;BME280;26579;43.238;23.124;2023-04-07T11:35:53;96872.97;;;9.37;37.52
39411;BME280;26579;43.238;23.124;2023-04-07T11:38:21;96895.97;;;9.53;36.62
39411;BME280;26579;43.238;23.124;2023-04-07T11:40:47;96893.03;;;9.58;37.12
39411;BME280;26579;43.238;23.124;2023-04-07T11:43:21;96868.34;;;9.41;37.09
39411;BME280;26579;43.238;23.124;2023-04-07T11:46:04;96900.59;;;9.38;37.52
39411;BME280;26579;43.238;23.124;2023-04-07T11:48:31;96894.44;;;9.39;37.51
39411;BME280;26579;43.238;23.124;2023-04-07T11:50:58;96889.63;;;9.35;37.89
39411;BME280;26579;43.238;23.124;2023-04-07T11:53:42;96906.25;;;9.32;37.90
39411;BME280;26579;43.238;23.124;2023-04-07T11:56:10;96900.25;;;9.20;38.88
39411;BME280;26579;43.238;23.124;2023-04-07T11:58:36;96902.84;;;9.32;38.68
39411;BME280;26579;43.238;23.124;2023-04-07T12:01:03;96900.59;;;9.38;39.17
39411;BME280;26579;43.238;23.124;2023-04-07T12:03:32;96906.03;;;9.46;39.56
39411;BME280;26579;43.238;23.124;2023-04-07T12:06:02;96905.56;;;9.41;38.94
39411;BME280;26579;43.238;23.124;2023-04-07T12:08:44;96894.09;;;9.33;37.54
39411;BME280;26579;43.238;23.124;2023-04-07T12:11:10;96895.88;;;9.55;37.73
39411;BME280;26579;43.238;23.124;2023-04-07T12:13:36;96901.00;;;9.77;42.76
39411;BME280;26579;43.238;23.124;2023-04-07T12:16:02;96891.88;;;9.94;40.49
39411;BME280;26579;43.238;23.124;2023-04-07T12:18:28;96897.75;;;10.07;38.76
39411;BME280;26579;43.238;23.124;2023-04-07T12:21:02;96895.22;;;10.17;40.66
39411;BME280;26579;43.238;23.124;2023-04-07T12:23:27;96889.06;;;10.29;37.75
39411;BME280;26579;43.238;23.124;2023-04-07T12:25:53;96898.66;;;10.50;42.87
39411;BME280;26579;43.238;23.124;2023-04-07T12:28:21;96907.78;;;10.76;40.68
39411;BME280;26579;43.238;23.124;2023-04-07T12:30:47;96897.09;;;10.79;41.40
39411;BME280;26579;43.238;23.124;2023-04-07T12:33:13;96886.84;;;10.87;36.48
39411;BME280;26579;43.238;23.124;2023-04-07T12:35:39;96887.81;;;10.86;36.57
39411;BME280;26579;43.238;23.124;2023-04-07T12:38:05;96893.56;;;10.90;36.53
39411;BME280;26579;43.238;23.124;2023-04-07T12:40:31;96896.84;;;10.82;36.78
39411;BME280;26579;43.238;23.124;2023-04-07T12:42:56;96895.50;;;10.88;37.38
39411;BME280;26579;43.238;23.124;2023-04-07T12:45:23;96892.50;;;10.93;36.33
39411;BME280;26579;43.238;23.124;2023-04-07T12:47:48;96896.63;;;10.95;35.97
39411;BME280;26579;43.238;23.124;2023-04-07T12:50:17;96899.09;;;10.76;36.04
39411;BME280;26579;43.238;23.124;2023-04-07T12:52:44;96887.16;;;10.73;35.63
39411;BME280;26579;43.238;23.124;2023-04-07T12:55:12;96886.03;;;10.66;36.52
39411;BME280;26579;43.238;23.124;2023-04-07T12:57:37;96894.22;;;10.61;35.90
39411;BME280;26579;43.238;23.124;2023-04-07T13:00:03;96867.38;;;10.40;36.14
39411;BME280;26579;43.238;23.124;2023-04-07T13:02:29;96890.69;;;10.41;36.47
39411;BME280;26579;43.238;23.124;2023-04-07T13:04:55;96890.22;;;10.36;36.41
39411;BME280;26579;43.238;23.124;2023-04-07T13:07:21;96901.34;;;10.38;36.88
39411;BME280;26579;43.238;23.124;2023-04-07T13:09:47;96891.00;;;10.48;37.19
39411;BME280;26579;43.238;23.124;2023-04-07T13:12:15;96901.50;;;10.47;36.74
39411;BME280;26579;43.238;23.124;2023-04-07T13:14:42;96885.84;;;10.37;36.39
39411;BME280;26579;43.238;23.124;2023-04-07T13:17:09;96898.28;;;10.33;37.80
39411;BME280;26579;43.238;23.124;2023-04-07T13:19:35;96886.59;;;10.28;38.02
39411;BME280;26579;43.238;23.124;2023-04-07T13:22:03;96891.59;;;10.40;37.87